Time;durP1;ratioP1;P1;durP2;ratioP2;P2;SDS_P1;SDS_P2;PMS_P1;PMS_P2;Temp;Humidity;BMP_temperature;BMP_pressure;BME280_temperature;BME280_humidity;BME280_pressure;Samples;Min_cycle;Max_cycle;Signal;HPM_P1;HPM_P2
2023/12/18 00:01:24;;;;;;;7.07;6.32;;;10.00;67.40;;;;;;4967393;28;20208;-79
2023/12/18 00:03:52;;;;;;;8.48;6.60;;;9.90;67.00;;;;;;4947505;28;20262;-83
2023/12/18 00:06:21;;;;;;;9.95;7.07;;;9.90;67.10;;;;;;4952495;28;20200;-79
2023/12/18 00:08:50;;;;;;;7.93;7.13;;;9.80;67.00;;;;;;4951193;28;20197;-79
2023/12/18 00:11:19;;;;;;;8.02;6.13;;;9.80;67.30;;;;;;4951906;28;20205;-79
2023/12/18 00:13:47;;;;;;;7.03;5.47;;;9.80;67.80;;;;;;4949923;28;20983;-79
2023/12/18 00:16:15;;;;;;;8.82;6.40;;;9.80;67.30;;;;;;4953863;28;20228;-79
2023/12/18 00:18:43;;;;;;;12.45;7.45;;;9.80;67.20;;;;;;4957842;28;20195;-81
2023/12/18 00:21:13;;;;;;;10.05;6.72;;;9.70;67.70;;;;;;4951188;28;20204;-81
2023/12/18 00:23:41;;;;;;;8.82;6.88;;;9.60;67.50;;;;;;4955202;28;20739;-79
2023/12/18 00:26:10;;;;;;;6.72;5.90;;;9.50;67.90;;;;;;4955560;28;20259;-80
2023/12/18 00:28:39;;;;;;;7.25;6.32;;;9.40;68.00;;;;;;4957278;28;20259;-79
2023/12/18 00:31:07;;;;;;;8.88;6.82;;;9.40;68.20;;;;;;4954880;28;21048;-85
2023/12/18 00:33:35;;;;;;;8.73;7.82;;;9.40;68.00;;;;;;4957788;28;20680;-80
2023/12/18 00:36:04;;;;;;;12.93;7.78;;;9.40;68.00;;;;;;4950525;28;20205;-79
2023/12/18 00:38:33;;;;;;;9.40;6.22;;;9.40;68.20;;;;;;4943234;28;20200;-79
2023/12/18 00:41:01;;;;;;;8.35;7.25;;;9.50;68.00;;;;;;4953651;29;20323;-79
2023/12/18 00:43:30;;;;;;;8.02;7.20;;;9.50;67.90;;;;;;4945666;28;20259;-78
2023/12/18 00:45:58;;;;;;;8.63;6.15;;;9.50;67.70;;;;;;4954693;29;20208;-81
2023/12/18 00:48:27;;;;;;;7.90;6.65;;;9.50;67.90;;;;;;4947835;28;20212;-79
2023/12/18 00:50:55;;;;;;;7.45;6.10;;;9.50;67.80;;;;;;4938463;28;20219;-78
2023/12/18 00:53:23;;;;;;;11.00;8.23;;;9.60;68.10;;;;;;4953017;28;20664;-79
2023/12/18 00:55:51;;;;;;;9.32;7.97;;;9.70;67.70;;;;;;4952067;28;20211;-79
2023/12/18 00:58:20;;;;;;;9.20;7.47;;;9.70;67.30;;;;;;4953956;29;20227;-80
2023/12/18 01:00:49;;;;;;;8.73;7.85;;;9.80;67.10;;;;;;4946620;28;20208;-79
2023/12/18 01:03:17;;;;;;;9.20;7.38;;;9.80;67.30;;;;;;4935189;29;20280;-80
2023/12/18 01:05:46;;;;;;;11.50;8.35;;;9.90;67.00;;;;;;4942926;28;20200;-79
2023/12/18 01:08:14;;;;;;;11.73;8.02;;;10.00;67.40;;;;;;4943114;28;20696;-79
2023/12/18 01:10:42;;;;;;;9.38;8.38;;;10.00;67.30;;;;;;4943186;28;20274;-79
2023/12/18 01:13:11;;;;;;;7.20;6.40;;;10.20;66.80;;;;;;4959402;28;20622;-78
2023/12/18 01:15:39;;;;;;;8.10;7.30;;;10.30;66.60;;;;;;4954490;28;20240;-79
2023/12/18 01:18:08;;;;;;;9.60;7.78;;;10.20;66.60;;;;;;4953427;28;20203;-82
2023/12/18 01:20:37;;;;;;;10.63;7.68;;;10.30;66.70;;;;;;4954701;29;20184;-83
2023/12/18 01:23:06;;;;;;;13.52;8.15;;;10.30;66.50;;;;;;4951514;28;20239;-80
2023/12/18 01:25:34;;;;;;;9.85;7.65;;;10.20;66.70;;;;;;4951803;28;20258;-80
2023/12/18 01:28:02;;;;;;;8.77;7.55;;;10.20;66.70;;;;;;4950309;28;20204;-79
2023/12/18 01:30:30;;;;;;;8.52;7.22;;;10.20;66.40;;;;;;4951993;28;20216;-81
2023/12/18 01:32:59;;;;;;;10.48;8.65;;;10.10;67.00;;;;;;4952955;28;20569;-80
2023/12/18 01:35:28;;;;;;;11.63;9.15;;;10.10;66.70;;;;;;4953446;28;20204;-84
2023/12/18 01:37:57;;;;;;;12.02;9.38;;;10.10;67.10;;;;;;4935971;28;20204;-83
2023/12/18 01:40:25;;;;;;;11.93;9.95;;;10.20;66.90;;;;;;4935564;28;20294;-79
2023/12/18 01:42:53;;;;;;;10.45;8.13;;;10.30;66.50;;;;;;4935568;28;20205;-79
2023/12/18 01:45:21;;;;;;;9.98;7.70;;;10.40;66.60;;;;;;4944836;28;20201;-79
2023/12/18 01:47:50;;;;;;;10.38;8.90;;;10.50;66.10;;;;;;4953762;28;20211;-79
2023/12/18 01:50:18;;;;;;;14.00;9.80;;;10.30;65.80;;;;;;4950517;28;20267;-79
2023/12/18 01:52:48;;;;;;;11.95;9.05;;;10.10;66.40;;;;;;4951747;28;20760;-82
2023/12/18 01:55:17;;;;;;;10.93;8.77;;;9.90;67.00;;;;;;4947112;28;20665;-79
2023/12/18 01:57:46;;;;;;;12.60;9.55;;;9.80;66.90;;;;;;4934575;29;20626;-79
2023/12/18 02:00:14;;;;;;;25.08;12.95;;;9.80;67.20;;;;;;4951622;28;20287;-80
2023/12/18 02:02:45;;;;;;;18.67;11.65;;;9.80;67.00;;;;;;4949190;29;20205;-78
2023/12/18 02:05:16;;;;;;;11.43;9.40;;;9.70;67.40;;;;;;4952879;29;20201;-79
2023/12/18 02:07:44;;;;;;;13.50;9.38;;;9.70;67.60;;;;;;4952067;28;20296;-79
2023/12/18 02:10:14;;;;;;;13.10;9.10;;;9.80;67.60;;;;;;4938191;28;20376;-78
2023/12/18 02:12:42;;;;;;;13.52;9.40;;;10.00;67.70;;;;;;4947619;28;20192;-78
2023/12/18 02:15:10;;;;;;;15.82;11.63;;;10.10;67.20;;;;;;4952266;29;20229;-79
2023/12/18 02:17:39;;;;;;;18.25;13.35;;;10.30;66.80;;;;;;4950213;28;20262;-78
2023/12/18 02:20:08;;;;;;;16.58;11.25;;;10.40;66.90;;;;;;4952114;28;20208;-82
2023/12/18 02:22:45;;;;;;;12.95;9.93;;;10.40;66.50;;;;;;4953137;28;20560;-79
2023/12/18 02:25:16;;;;;;;15.60;11.43;;;10.40;66.50;;;;;;4955856;28;20247;-78
2023/12/18 02:27:45;;;;;;;14.25;10.88;;;10.50;66.60;;;;;;4953313;29;20248;-78
2023/12/18 02:30:15;;;;;;;15.20;10.60;;;10.60;66.60;;;;;;4950818;28;20194;-79
2023/12/18 02:32:44;;;;;;;13.52;10.95;;;10.60;66.50;;;;;;4949561;29;20231;-79
2023/12/18 02:35:12;;;;;;;15.32;10.70;;;10.60;65.90;;;;;;4952087;28;20195;-79
2023/12/18 02:37:42;;;;;;;19.73;13.02;;;10.40;66.20;;;;;;4946838;28;20619;-79
2023/12/18 02:40:11;;;;;;;14.77;10.90;;;10.30;66.30;;;;;;4948266;28;20207;-79
2023/12/18 02:42:39;;;;;;;12.10;9.07;;;10.20;66.80;;;;;;4951885;28;20197;-79
2023/12/18 02:45:09;;;;;;;13.73;9.40;;;10.20;66.70;;;;;;4952449;28;20200;-79
2023/12/18 02:47:37;;;;;;;15.82;9.95;;;10.10;66.90;;;;;;4950529;28;20212;-83
2023/12/18 02:50:06;;;;;;;12.45;8.95;;;10.00;66.90;;;;;;4949682;28;20224;-79
2023/12/18 02:52:34;;;;;;;14.88;9.73;;;9.90;67.30;;;;;;4952471;28;20227;-83
2023/12/18 02:55:05;;;;;;;11.27;9.38;;;10.00;67.40;;;;;;4952707;28;20235;-78
2023/12/18 02:57:33;;;;;;;13.70;10.50;;;10.10;66.80;;;;;;4956804;28;20189;-79
2023/12/18 03:00:01;;;;;;;13.27;10.00;;;10.00;66.80;;;;;;4956034;28;20211;-81
2023/12/18 03:02:29;;;;;;;11.82;9.38;;;9.90;67.30;;;;;;4960330;28;21643;-79
2023/12/18 03:04:57;;;;;;;14.80;11.63;;;10.00;67.10;;;;;;4948393;28;20212;-81
2023/12/18 03:07:26;;;;;;;15.23;11.35;;;10.00;67.10;;;;;;4952866;28;20247;-78
2023/12/18 03:09:54;;;;;;;11.95;9.80;;;10.10;67.20;;;;;;4955056;28;20204;-78
2023/12/18 03:12:24;;;;;;;10.25;8.40;;;10.30;67.30;;;;;;4954856;28;20211;-79
2023/12/18 03:14:52;;;;;;;12.10;8.93;;;10.30;66.90;;;;;;4950029;28;20240;-81
2023/12/18 03:17:20;;;;;;;13.43;9.40;;;10.30;66.80;;;;;;4954996;28;20781;-79
2023/12/18 03:19:48;;;;;;;10.57;7.78;;;10.20;66.60;;;;;;4954720;28;20254;-79
2023/12/18 03:22:17;;;;;;;11.32;9.13;;;10.10;66.90;;;;;;4954828;28;20206;-81
2023/12/18 03:24:45;;;;;;;10.90;9.00;;;10.00;66.90;;;;;;4947145;28;20196;-79
2023/12/18 03:27:13;;;;;;;14.13;10.13;;;10.00;67.30;;;;;;4955201;28;20756;-87
2023/12/18 03:29:43;;;;;;;11.00;9.27;;;10.00;66.90;;;;;;4955853;28;20287;-81
2023/12/18 03:32:11;;;;;;;11.18;8.85;;;10.00;66.80;;;;;;4937404;28;20216;-79
2023/12/18 03:34:39;;;;;;;11.18;8.63;;;9.90;67.00;;;;;;4955289;29;20258;-79
2023/12/18 03:37:07;;;;;;;12.98;9.48;;;9.90;67.20;;;;;;4955683;28;20204;-83
2023/12/18 03:39:36;;;;;;;11.30;9.05;;;9.70;67.20;;;;;;4934640;28;20617;-79
2023/12/18 03:42:05;;;;;;;12.93;8.60;;;9.50;67.50;;;;;;4955795;28;20704;-78
2023/12/18 03:44:33;;;;;;;12.90;9.20;;;9.40;67.80;;;;;;4954953;28;20196;-78
2023/12/18 03:47:03;;;;;;;11.35;9.18;;;9.40;67.90;;;;;;4953575;28;20200;-79
2023/12/18 03:49:31;;;;;;;15.60;10.32;;;9.20;68.30;;;;;;4942694;28;20201;-78
2023/12/18 03:51:59;;;;;;;14.23;9.43;;;9.30;68.40;;;;;;4952942;28;20220;-78
2023/12/18 03:54:27;;;;;;;12.13;8.98;;;9.20;68.70;;;;;;4953795;28;20204;-80
2023/12/18 03:56:56;;;;;;;14.38;9.43;;;9.30;68.20;;;;;;4955388;28;20255;-79
2023/12/18 03:59:24;;;;;;;12.60;8.32;;;9.30;68.10;;;;;;4954977;28;20204;-78
2023/12/18 04:01:52;;;;;;;10.73;8.35;;;9.30;68.30;;;;;;4953596;28;20734;-78
2023/12/18 04:04:22;;;;;;;14.88;9.32;;;9.30;68.20;;;;;;4939774;28;20208;-80
2023/12/18 04:06:50;;;;;;;9.32;7.70;;;9.40;68.20;;;;;;4945345;28;20239;-81
2023/12/18 04:09:18;;;;;;;13.20;8.38;;;9.50;68.00;;;;;;4954430;29;20200;-79
2023/12/18 04:11:46;;;;;;;12.20;8.15;;;9.50;67.80;;;;;;4954024;28;20216;-83
2023/12/18 04:14:14;;;;;;;11.45;8.75;;;9.50;67.70;;;;;;4951429;28;20283;-79
2023/12/18 04:16:43;;;;;;;11.05;8.35;;;9.40;67.90;;;;;;4954821;28;20200;-78
2023/12/18 04:19:11;;;;;;;13.48;8.80;;;9.40;68.00;;;;;;4953124;28;20232;-79
2023/12/18 04:21:41;;;;;;;10.32;7.88;;;9.40;67.80;;;;;;4947231;29;20208;-78
2023/12/18 04:24:09;;;;;;;12.27;9.05;;;9.30;68.00;;;;;;4948392;28;20208;-79
2023/12/18 04:26:37;;;;;;;12.73;9.10;;;9.20;68.30;;;;;;4953571;28;20200;-80
2023/12/18 04:29:05;;;;;;;17.45;10.25;;;9.20;68.30;;;;;;4954979;28;20255;-82
2023/12/18 04:31:34;;;;;;;11.45;8.20;;;9.10;68.40;;;;;;4949835;28;20209;-79
2023/12/18 04:34:02;;;;;;;13.52;8.95;;;9.10;68.60;;;;;;4955041;29;20201;-80
2023/12/18 04:36:30;;;;;;;11.98;9.65;;;9.10;68.80;;;;;;4945478;28;20243;-78
2023/12/18 04:39:00;;;;;;;13.43;9.35;;;9.20;68.50;;;;;;4953925;28;20664;-79
2023/12/18 04:41:28;;;;;;;13.05;8.77;;;9.20;68.40;;;;;;4952632;28;20263;-79
2023/12/18 04:43:56;;;;;;;11.13;8.27;;;9.10;68.10;;;;;;4947033;29;20204;-79
2023/12/18 04:46:25;;;;;;;15.70;9.20;;;9.10;68.50;;;;;;4957224;28;20757;-78
2023/12/18 04:48:53;;;;;;;11.13;8.43;;;9.00;68.80;;;;;;4954687;29;20251;-79
2023/12/18 04:51:21;;;;;;;15.00;9.20;;;9.00;68.60;;;;;;4953794;28;20196;-82
2023/12/18 04:53:49;;;;;;;14.65;9.85;;;9.00;68.70;;;;;;4952935;28;20287;-79
2023/12/18 04:56:19;;;;;;;13.23;9.23;;;9.00;68.80;;;;;;4953005;28;20671;-79
2023/12/18 04:58:47;;;;;;;12.25;8.27;;;9.00;68.90;;;;;;4954197;28;20269;-81
2023/12/18 05:01:15;;;;;;;9.02;7.47;;;9.20;68.50;;;;;;4956286;28;20271;-80
2023/12/18 05:03:44;;;;;;;12.77;8.85;;;9.20;68.50;;;;;;4949638;28;20197;-78
2023/12/18 05:06:22;;;;;;;11.77;7.70;;;9.20;68.30;;;;;;4944630;28;20201;-83
2023/12/18 05:08:51;;;;;;;11.60;8.70;;;9.10;68.70;;;;;;4947859;28;20857;-79
2023/12/18 05:11:21;;;;;;;11.13;8.20;;;9.10;68.50;;;;;;4952182;28;20215;-80
2023/12/18 05:13:50;;;;;;;12.07;8.85;;;9.20;68.50;;;;;;4949724;28;20212;-78
2023/12/18 05:16:19;;;;;;;11.25;7.90;;;9.20;68.50;;;;;;4949051;28;20239;-78
2023/12/18 05:18:47;;;;;;;13.20;9.43;;;9.20;68.50;;;;;;4952789;29;20211;-86
2023/12/18 05:21:16;;;;;;;13.48;8.63;;;9.30;68.30;;;;;;4951263;28;20204;-79
2023/12/18 05:23:47;;;;;;;11.65;8.60;;;9.30;68.10;;;;;;4944875;28;20201;-78
2023/12/18 05:26:15;;;;;;;13.65;8.65;;;9.30;68.30;;;;;;4946234;28;20220;-78
2023/12/18 05:28:45;;;;;;;11.95;8.38;;;9.30;68.40;;;;;;4943793;28;20270;-80
2023/12/18 05:31:14;;;;;;;11.98;9.45;;;9.30;68.40;;;;;;4942696;28;20204;-78
2023/12/18 05:33:43;;;;;;;13.60;9.82;;;9.40;68.20;;;;;;4943569;28;20680;-79
2023/12/18 05:36:14;;;;;;;14.93;9.10;;;9.50;68.50;;;;;;4944971;29;20212;-78
2023/12/18 05:38:43;;;;;;;11.55;8.57;;;9.60;68.30;;;;;;4946560;28;20207;-80
2023/12/18 05:41:11;;;;;;;13.45;9.40;;;9.70;67.50;;;;;;4948627;28;20235;-82
2023/12/18 05:43:39;;;;;;;12.82;8.23;;;9.70;67.90;;;;;;4945626;28;20208;-84
2023/12/18 05:46:12;;;;;;;14.07;9.85;;;9.70;67.60;;;;;;4945139;28;20208;-78
2023/12/18 05:48:40;;;;;;;14.10;9.90;;;9.70;67.60;;;;;;4952727;28;20208;-80
2023/12/18 05:51:20;;;;;;;13.18;10.30;;;9.70;67.90;;;;;;4947256;28;20204;-80
2023/12/18 05:53:48;;;;;;;11.65;9.55;;;9.70;67.40;;;;;;4942027;28;20695;-80
2023/12/18 05:56:16;;;;;;;10.35;7.57;;;9.70;67.70;;;;;;4947637;28;20668;-79
2023/12/18 05:58:45;;;;;;;12.38;8.73;;;9.80;67.50;;;;;;4952174;28;20295;-79
2023/12/18 06:01:14;;;;;;;12.25;8.85;;;9.80;67.30;;;;;;4943200;28;20196;-77
2023/12/18 06:03:42;;;;;;;10.52;6.85;;;9.90;67.30;;;;;;4951138;28;20196;-78
2023/12/18 06:06:11;;;;;;;11.82;9.18;;;9.80;67.40;;;;;;4950567;28;20291;-78
2023/12/18 06:08:39;;;;;;;9.80;7.60;;;9.90;67.50;;;;;;4955610;28;20208;-80
2023/12/18 06:11:07;;;;;;;10.45;8.05;;;9.90;67.40;;;;;;4941931;29;20220;-82
2023/12/18 06:13:36;;;;;;;11.15;7.85;;;9.90;66.90;;;;;;4946283;28;20204;-82
2023/12/18 06:16:05;;;;;;;11.85;9.05;;;9.90;67.40;;;;;;4946800;28;20252;-79
2023/12/18 06:18:35;;;;;;;13.75;8.65;;;9.80;67.20;;;;;;4951488;28;20714;-81
2023/12/18 06:21:04;;;;;;;10.30;7.72;;;9.80;67.20;;;;;;4952633;28;20228;-84
2023/12/18 06:23:33;;;;;;;11.60;8.32;;;9.70;67.50;;;;;;4941279;28;20228;-79
2023/12/18 06:26:01;;;;;;;15.45;9.52;;;9.60;68.00;;;;;;4950225;29;20197;-80
2023/12/18 06:28:30;;;;;;;10.70;7.55;;;9.60;67.80;;;;;;4950811;28;20204;-80
2023/12/18 06:31:00;;;;;;;17.05;11.30;;;9.70;67.80;;;;;;4951752;29;20759;-79
2023/12/18 06:33:28;;;;;;;12.68;8.57;;;9.60;67.80;;;;;;4937393;28;20220;-79
2023/12/18 06:35:58;;;;;;;12.10;8.32;;;9.60;67.80;;;;;;4948597;29;20966;-84
2023/12/18 06:38:27;;;;;;;10.15;7.80;;;9.70;67.70;;;;;;4947330;28;20200;-80
2023/12/18 06:40:56;;;;;;;13.18;8.55;;;9.70;67.60;;;;;;4944818;28;20201;-78
2023/12/18 06:43:24;;;;;;;11.02;9.00;;;9.80;67.50;;;;;;4946704;28;20679;-82
2023/12/18 06:45:52;;;;;;;12.55;8.38;;;9.80;67.30;;;;;;4955100;28;20195;-80
2023/12/18 06:48:20;;;;;;;13.45;8.02;;;9.80;67.40;;;;;;4952446;28;20552;-79
2023/12/18 06:50:49;;;;;;;13.60;9.38;;;9.70;67.30;;;;;;4950113;28;20313;-79
2023/12/18 06:53:18;;;;;;;13.23;9.00;;;9.80;67.70;;;;;;4951256;28;20304;-78
2023/12/18 06:55:46;;;;;;;15.02;10.07;;;9.80;67.70;;;;;;4953208;28;20196;-79
2023/12/18 06:58:15;;;;;;;18.60;11.38;;;10.00;67.60;;;;;;4952682;28;20192;-79
2023/12/18 07:00:44;;;;;;;17.20;11.18;;;10.10;67.50;;;;;;4957192;28;20728;-79
2023/12/18 07:03:12;;;;;;;13.55;10.77;;;10.30;67.20;;;;;;4945035;29;20208;-79
2023/12/18 07:05:40;;;;;;;19.27;12.85;;;10.50;66.90;;;;;;4948572;29;20200;-79
2023/12/18 07:08:09;;;;;;;16.92;11.63;;;10.60;66.20;;;;;;4938601;29;20207;-79
2023/12/18 07:10:38;;;;;;;14.02;10.50;;;10.70;66.10;;;;;;4938815;28;20303;-82
2023/12/18 07:13:06;;;;;;;17.83;11.80;;;10.80;65.80;;;;;;4955981;28;20747;-79
2023/12/18 07:15:35;;;;;;;20.48;13.77;;;10.80;66.10;;;;;;4952834;29;20239;-80
2023/12/18 07:18:03;;;;;;;20.17;13.32;;;10.70;66.20;;;;;;4951039;28;20642;-79
2023/12/18 07:20:31;;;;;;;14.48;10.70;;;10.70;66.10;;;;;;4949669;28;20218;-81
2023/12/18 07:23:00;;;;;;;18.55;12.82;;;10.70;66.30;;;;;;4950964;28;20708;-85
2023/12/18 07:25:28;;;;;;;16.27;11.32;;;10.80;66.60;;;;;;4952622;29;20199;-79
2023/12/18 07:27:58;;;;;;;20.75;13.48;;;11.00;66.40;;;;;;4943576;29;20201;-79
2023/12/18 07:30:26;;;;;;;16.73;11.00;;;11.10;65.20;;;;;;4936443;28;20185;-79
2023/12/18 07:32:55;;;;;;;18.55;13.57;;;11.00;65.80;;;;;;4947098;28;20196;-78
2023/12/18 07:35:23;;;;;;;20.98;14.52;;;10.90;65.60;;;;;;4952607;28;20326;-79
2023/12/18 07:37:51;;;;;;;17.63;11.55;;;10.80;65.80;;;;;;4952336;28;20599;-79
2023/12/18 07:40:20;;;;;;;19.50;12.98;;;10.80;65.90;;;;;;4951727;28;20239;-80
2023/12/18 07:42:49;;;;;;;20.33;14.20;;;10.80;66.10;;;;;;4955205;29;20546;-79
2023/12/18 07:45:19;;;;;;;19.35;14.48;;;10.90;65.80;;;;;;4956323;29;20199;-81
2023/12/18 07:47:47;;;;;;;21.58;14.32;;;10.90;65.50;;;;;;4959701;28;20215;-80
2023/12/18 07:50:16;;;;;;;17.83;12.38;;;10.90;65.70;;;;;;4955361;28;20203;-81
2023/12/18 07:52:44;;;;;;;18.23;12.77;;;10.70;65.80;;;;;;4955118;28;20204;-79
2023/12/18 07:55:12;;;;;;;22.38;13.90;;;10.70;66.60;;;;;;4955084;29;20211;-79
2023/12/18 07:57:42;;;;;;;21.70;15.02;;;10.80;66.30;;;;;;4956415;29;20571;-79
2023/12/18 08:00:12;;;;;;;19.10;12.95;;;11.00;65.90;;;;;;4955924;29;20199;-81
2023/12/18 08:02:41;;;;;;;14.20;11.00;;;11.10;65.80;;;;;;4955265;28;20264;-81
2023/12/18 08:05:10;;;;;;;14.40;10.73;;;11.20;65.40;;;;;;4947028;28;20235;-81
2023/12/18 08:07:38;;;;;;;12.30;10.15;;;11.20;65.40;;;;;;4964077;28;20203;-82
2023/12/18 08:10:08;;;;;;;13.50;11.45;;;11.30;65.70;;;;;;4954751;29;20656;-79
2023/12/18 08:12:36;;;;;;;14.98;11.15;;;11.30;65.30;;;;;;4957516;28;20196;-80
2023/12/18 08:15:05;;;;;;;13.85;10.25;;;11.40;65.40;;;;;;4955152;29;20248;-79
2023/12/18 08:17:38;;;;;;;12.77;10.57;;;11.40;65.30;;;;;;4948503;28;20207;-80
2023/12/18 08:20:09;;;;;;;16.65;12.50;;;11.30;64.10;;;;;;4949522;28;21066;-78
2023/12/18 08:22:37;;;;;;;20.55;14.63;;;11.10;64.40;;;;;;4955596;28;20672;-81
2023/12/18 08:25:07;;;;;;;17.52;13.40;;;10.90;64.60;;;;;;4972838;28;20714;-79
2023/12/18 08:27:35;;;;;;;17.88;10.88;;;10.60;65.30;;;;;;4968001;28;20258;-84
2023/12/18 08:30:05;;;;;;;14.65;12.25;;;10.50;65.80;;;;;;4945014;28;20283;-79
2023/12/18 08:32:33;;;;;;;14.13;11.40;;;10.30;65.70;;;;;;4942809;29;20204;-80
2023/12/18 08:35:02;;;;;;;14.05;10.35;;;10.10;66.30;;;;;;4950389;28;20234;-79
2023/12/18 08:37:32;;;;;;;15.10;10.25;;;10.00;66.50;;;;;;4946083;28;20213;-79
2023/12/18 08:40:00;;;;;;;15.07;10.25;;;9.90;66.60;;;;;;4952553;29;20212;-82
2023/12/18 08:42:28;;;;;;;13.07;9.30;;;9.80;67.00;;;;;;4951971;29;20204;-78
2023/12/18 08:44:56;;;;;;;12.50;10.15;;;9.80;66.90;;;;;;4955210;28;20251;-80
2023/12/18 08:47:26;;;;;;;14.10;9.77;;;9.70;67.20;;;;;;4955085;28;20609;-82
2023/12/18 08:49:55;;;;;;;11.55;8.48;;;9.70;67.50;;;;;;4953350;29;20204;-80
2023/12/18 08:52:23;;;;;;;11.50;8.07;;;9.70;67.50;;;;;;4942655;28;20204;-79
2023/12/18 08:54:52;;;;;;;10.85;7.65;;;9.70;67.40;;;;;;4958046;28;20226;-79
2023/12/18 08:57:21;;;;;;;16.60;10.48;;;9.70;67.40;;;;;;4945856;28;20212;-80
2023/12/18 08:59:51;;;;;;;27.13;19.48;;;9.70;67.40;;;;;;4947765;28;20672;-80
2023/12/18 09:02:20;;;;;;;16.25;11.75;;;9.90;67.40;;;;;;4950096;28;20299;-80
2023/12/18 09:04:51;;;;;;;15.88;10.98;;;10.00;67.20;;;;;;4949209;29;20203;-79
2023/12/18 09:07:19;;;;;;;16.85;12.05;;;10.10;67.30;;;;;;4944914;28;20280;-79
2023/12/18 09:09:47;;;;;;;13.25;10.18;;;10.30;67.10;;;;;;4945815;28;20208;-79
2023/12/18 09:12:17;;;;;;;15.10;10.02;;;10.50;66.90;;;;;;4945182;28;20212;-84
2023/12/18 09:14:45;;;;;;;16.67;12.30;;;10.70;65.90;;;;;;4949382;28;20243;-80
2023/12/18 09:17:15;;;;;;;19.70;13.63;;;10.70;65.80;;;;;;4949206;28;20200;-79
2023/12/18 09:19:43;;;;;;;20.33;17.20;;;10.70;65.40;;;;;;4955544;28;20208;-80
2023/12/18 09:22:11;;;;;;;16.85;11.60;;;10.70;65.60;;;;;;4950739;28;20208;-80
2023/12/18 09:24:40;;;;;;;12.68;9.10;;;10.80;65.50;;;;;;4952215;28;20196;-80
2023/12/18 09:27:08;;;;;;;13.90;9.82;;;10.80;65.30;;;;;;4946696;28;20541;-80
2023/12/18 09:29:37;;;;;;;12.70;8.70;;;10.70;65.60;;;;;;4950864;29;20204;-81
2023/12/18 09:32:07;;;;;;;11.90;9.60;;;10.70;65.70;;;;;;4948165;28;20196;-80
2023/12/18 09:34:36;;;;;;;13.82;8.75;;;10.60;66.00;;;;;;4946461;29;20212;-80
2023/12/18 09:37:04;;;;;;;20.42;12.80;;;10.70;65.70;;;;;;4947330;29;20196;-80
2023/12/18 09:39:32;;;;;;;11.55;7.63;;;10.70;65.30;;;;;;4947511;29;20200;-80
2023/12/18 09:42:02;;;;;;;16.27;9.30;;;10.60;65.40;;;;;;4947714;29;20295;-80
2023/12/18 09:44:31;;;;;;;17.52;10.85;;;10.50;65.80;;;;;;4953484;28;20237;-82
2023/12/18 09:47:01;;;;;;;11.30;9.43;;;10.40;65.60;;;;;;4951845;28;20204;-79
2023/12/18 09:49:30;;;;;;;13.30;9.50;;;10.40;65.90;;;;;;4947811;28;20209;-80
2023/12/18 09:52:01;;;;;;;11.07;8.45;;;10.40;66.30;;;;;;4948591;28;20214;-82
2023/12/18 09:54:31;;;;;;;10.05;7.53;;;10.40;66.00;;;;;;4953501;28;20626;-80
2023/12/18 09:57:02;;;;;;;10.18;7.85;;;10.40;66.20;;;;;;4944159;28;20287;-80
2023/12/18 09:59:30;;;;;;;12.93;9.80;;;10.50;65.70;;;;;;4948265;28;20219;-81
2023/12/18 10:02:02;;;;;;;15.93;10.32;;;10.50;66.00;;;;;;4946757;29;20208;-82
2023/12/18 10:04:31;;;;;;;11.45;9.13;;;10.50;65.90;;;;;;4951007;28;20239;-79
2023/12/18 10:06:59;;;;;;;8.90;8.00;;;10.60;65.90;;;;;;4951340;29;20259;-80
2023/12/18 10:09:28;;;;;;;11.60;8.88;;;10.80;65.70;;;;;;4948640;28;20196;-80
2023/12/18 10:11:56;;;;;;;7.82;6.05;;;10.80;65.30;;;;;;4942544;28;20287;-78
2023/12/18 10:14:25;;;;;;;6.53;5.13;;;10.80;65.00;;;;;;4954214;28;20323;-79
2023/12/18 10:16:53;;;;;;;7.85;5.20;;;11.20;68.10;;;;;;4955782;28;20268;-83
2023/12/18 10:19:24;;;;;;;5.22;4.30;;;12.00;67.40;;;;;;4954176;28;20207;-78
2023/12/18 10:21:53;;;;;;;6.30;4.53;;;13.00;65.80;;;;;;4959118;28;20215;-84
2023/12/18 10:24:21;;;;;;;4.17;3.77;;;14.00;63.50;;;;;;4952993;28;20458;-79
2023/12/18 10:26:50;;;;;;;4.97;4.47;;;15.00;61.40;;;;;;4947302;28;20463;-84
2023/12/18 10:29:18;;;;;;;4.67;4.20;;;15.80;59.90;;;;;;4949542;28;20446;-80
2023/12/18 10:31:47;;;;;;;3.97;3.50;;;16.50;59.10;;;;;;4946587;28;21063;-79
2023/12/18 10:34:18;;;;;;;4.33;3.93;;;17.10;58.10;;;;;;4949194;28;20491;-78
2023/12/18 10:36:48;;;;;;;8.27;3.60;;;17.60;56.90;;;;;;4955346;28;20472;-78
2023/12/18 10:39:20;;;;;;;5.80;4.00;;;18.10;56.10;;;;;;4960552;28;20454;-81
2023/12/18 10:41:56;;;;;;;11.23;3.60;;;18.60;55.30;;;;;;4951238;28;20460;-81
2023/12/18 10:44:26;;;;;;;13.20;4.90;;;19.00;54.80;;;;;;4963013;28;20794;-81
2023/12/18 10:46:55;;;;;;;5.20;3.40;;;19.40;53.90;;;;;;4957770;28;20449;-79
2023/12/18 10:49:27;;;;;;;4.20;3.90;;;19.70;53.50;;;;;;4947887;28;20503;-78
2023/12/18 10:51:58;;;;;;;3.80;3.40;;;19.90;53.00;;;;;;4951983;28;20455;-79
2023/12/18 10:54:27;;;;;;;5.83;3.27;;;20.20;52.80;;;;;;4954040;28;20471;-81
2023/12/18 10:56:57;;;;;;;6.20;4.60;;;20.30;52.70;;;;;;4957445;28;20491;-81
2023/12/18 10:59:29;;;;;;;9.53;3.83;;;20.60;52.50;;;;;;4952494;28;20495;-82
2023/12/18 11:01:58;;;;;;;5.30;3.33;;;20.80;52.40;;;;;;4950437;28;20487;-83
2023/12/18 11:04:27;;;;;;;5.03;3.50;;;20.90;52.00;;;;;;4951622;28;20472;-78
2023/12/18 11:06:59;;;;;;;4.73;3.43;;;21.10;52.00;;;;;;4943287;28;20951;-78
2023/12/18 11:09:27;;;;;;;6.60;3.50;;;21.30;51.60;;;;;;4956827;28;20457;-79
2023/12/18 11:11:56;;;;;;;5.53;3.00;;;21.40;51.40;;;;;;4945151;28;20465;-83
2023/12/18 11:14:37;;;;;;;3.97;3.57;;;21.50;51.50;;;;;;4947800;28;20587;-79
2023/12/18 11:17:13;;;;;;;3.40;3.10;;;21.60;51.50;;;;;;4958442;28;20505;-83
2023/12/18 11:19:50;;;;;;;6.10;4.60;;;21.70;51.70;;;;;;4966859;28;20456;-81
2023/12/18 11:22:23;;;;;;;4.83;3.30;;;21.70;51.50;;;;;;4955909;29;20477;-83
2023/12/18 11:24:52;;;;;;;4.10;3.03;;;21.80;51.60;;;;;;4956072;28;20977;-81
2023/12/18 11:27:21;;;;;;;5.80;3.63;;;21.80;51.70;;;;;;4962742;28;20454;-79
2023/12/18 11:29:49;;;;;;;8.40;3.73;;;21.80;51.80;;;;;;4954278;28;20549;-79
2023/12/18 11:32:43;;;;;;;10.30;5.10;;;21.80;51.70;;;;;;4958144;28;20450;-80
2023/12/18 11:35:12;;;;;;;8.50;4.80;;;21.90;51.60;;;;;;4948521;28;20451;-86
2023/12/18 11:37:50;;;;;;;6.40;4.90;;;21.90;51.30;;;;;;4956577;28;20508;-79
2023/12/18 11:40:35;;;;;;;3.80;3.20;;;21.90;51.30;;;;;;4953217;28;20465;-79
2023/12/18 11:43:05;;;;;;;6.63;3.50;;;21.80;51.30;;;;;;4959866;28;20458;-79
2023/12/18 11:45:36;;;;;;;5.00;3.80;;;21.80;51.30;;;;;;4948100;28;20458;-79
2023/12/18 11:48:06;;;;;;;7.87;4.53;;;21.80;51.30;;;;;;4957878;28;20459;-79
2023/12/18 11:50:37;;;;;;;5.90;3.70;;;21.80;51.10;;;;;;4956163;28;20501;-79
2023/12/18 11:53:31;;;;;;;6.43;3.50;;;21.80;51.20;;;;;;4960664;28;20465;-81
2023/12/18 11:55:59;;;;;;;4.03;3.40;;;21.90;51.20;;;;;;4956093;28;20490;-81
2023/12/18 11:58:28;;;;;;;3.50;3.03;;;21.90;51.10;;;;;;4955587;28;20514;-79
2023/12/18 12:00:58;;;;;;;6.20;3.83;;;22.00;51.10;;;;;;4953590;29;20466;-79
2023/12/18 12:03:27;;;;;;;3.60;3.30;;;22.00;51.00;;;;;;4963219;28;20925;-80
2023/12/18 12:05:58;;;;;;;4.83;3.77;;;22.10;51.00;;;;;;4950738;29;20567;-84
2023/12/18 12:08:28;;;;;;;2.90;2.70;;;22.10;50.80;;;;;;4953500;28;20530;-80
2023/12/18 12:10:57;;;;;;;3.83;3.53;;;22.10;50.90;;;;;;4947620;28;20969;-80
2023/12/18 12:13:27;;;;;;;3.67;3.37;;;22.20;50.90;;;;;;4966644;28;20454;-81
2023/12/18 12:15:57;;;;;;;3.00;2.80;;;22.20;50.90;;;;;;4949416;29;20501;-81
2023/12/18 12:18:26;;;;;;;3.17;2.97;;;22.30;50.90;;;;;;4949737;28;20510;-80
2023/12/18 12:20:55;;;;;;;4.43;4.03;;;22.30;50.90;;;;;;4956381;28;20463;-80
2023/12/18 12:23:24;;;;;;;6.13;3.73;;;22.30;50.80;;;;;;4957868;28;20482;-79
2023/12/18 12:25:57;;;;;;;3.60;3.20;;;22.40;50.80;;;;;;4943652;28;20959;-80
2023/12/18 12:28:28;;;;;;;4.23;3.93;;;22.40;50.70;;;;;;4944508;28;20561;-84
2023/12/18 12:30:56;;;;;;;4.23;3.87;;;22.50;50.50;;;;;;4950279;28;20948;-82
2023/12/18 12:33:39;;;;;;;3.80;3.50;;;22.50;50.50;;;;;;4947881;28;20979;-83
2023/12/18 12:36:08;;;;;;;4.20;3.90;;;22.60;50.30;;;;;;4959533;28;20479;-80
2023/12/18 12:38:37;;;;;;;3.60;3.30;;;22.60;50.10;;;;;;4965370;28;20447;-81
2023/12/18 12:41:06;;;;;;;8.03;5.03;;;22.70;50.10;;;;;;4969500;28;20462;-85
2023/12/18 12:43:35;;;;;;;3.83;3.53;;;22.70;50.10;;;;;;4948094;28;20456;-85
2023/12/18 12:46:05;;;;;;;3.90;3.60;;;22.70;50.10;;;;;;4950047;28;20463;-80
2023/12/18 12:48:34;;;;;;;5.57;3.70;;;22.70;50.00;;;;;;4959430;28;20959;-80
2023/12/18 12:51:05;;;;;;;4.33;3.93;;;22.70;49.90;;;;;;4945854;28;20905;-80